createdAt,value
2024-04-30T00:05:07.391Z,97955.94
2024-04-30T00:10:12.454Z,97941.00
2024-04-30T00:15:18.190Z,97954.81
2024-04-30T00:20:25.667Z,97947.00
2024-04-30T00:25:30.482Z,97953.56
2024-04-30T00:30:35.313Z,97955.63
2024-04-30T00:35:42.619Z,97946.91
2024-04-30T00:40:47.501Z,97954.50
2024-04-30T00:45:52.319Z,97960.88
2024-04-30T00:51:00.138Z,97960.13
2024-04-30T00:56:05.482Z,97969.06
2024-04-30T01:01:10.243Z,97973.75
2024-04-30T01:06:17.621Z,97972.75
2024-04-30T01:11:22.556Z,97969.00
2024-04-30T01:16:27.235Z,97961.75
2024-04-30T01:21:34.599Z,97965.88
2024-04-30T01:26:41.896Z,97965.81
2024-04-30T01:31:46.537Z,97959.66
2024-04-30T01:36:51.200Z,97972.66
2024-04-30T01:41:58.565Z,97969.53
2024-04-30T01:47:03.307Z,97971.22
2024-04-30T01:52:08.575Z,97972.69
2024-04-30T01:57:15.934Z,97970.03
2024-04-30T02:02:20.723Z,97962.69
2024-04-30T02:07:25.845Z,97971.78
2024-04-30T02:12:33.196Z,97969.75
2024-04-30T02:17:38.047Z,97975.34
2024-04-30T02:22:42.848Z,97973.88
2024-04-30T02:27:50.351Z,97967.66
2024-04-30T02:33:10.737Z,97959.31
2024-04-30T02:38:15.477Z,97951.00
2024-04-30T02:43:22.822Z,97955.44
2024-04-30T02:48:28.678Z,97961.19
2024-04-30T02:53:33.438Z,97952.53
2024-04-30T02:58:41.209Z,97944.06
2024-04-30T03:03:46.638Z,97937.59
2024-04-30T03:08:51.674Z,97936.75
2024-04-30T03:13:58.993Z,97944.22
2024-04-30T03:19:03.748Z,97939.34
2024-04-30T03:24:08.908Z,97950.19
2024-04-30T03:29:16.646Z,97948.53
2024-04-30T03:34:22.489Z,97942.13
2024-04-30T03:39:27.387Z,97948.78
2024-04-30T03:44:34.690Z,97938.53
2024-04-30T03:49:40.854Z,97936.63
2024-04-30T03:54:45.518Z,97935.03
2024-04-30T03:59:52.873Z,97926.28
2024-04-30T04:04:57.748Z,97929.53
2024-04-30T04:10:02.578Z,97931.50
2024-04-30T04:15:11.060Z,97925.41
2024-04-30T04:20:15.855Z,97936.69
2024-04-30T04:25:20.625Z,97941.78
2024-04-30T04:30:27.983Z,97943.59
2024-04-30T04:35:32.671Z,97956.88
2024-04-30T04:40:37.412Z,97958.94
2024-04-30T04:45:44.841Z,97952.19
2024-04-30T04:50:49.683Z,97952.34
2024-04-30T04:55:54.387Z,97958.00
2024-04-30T05:01:01.884Z,97957.66
2024-04-30T05:06:07.276Z,97959.63
2024-04-30T05:11:15.357Z,97958.38
2024-04-30T05:16:22.792Z,97958.66
2024-04-30T05:21:27.716Z,97958.16
2024-04-30T05:26:32.412Z,97962.84
2024-04-30T05:31:42.467Z,97954.50
2024-04-30T05:36:47.224Z,97952.28
2024-04-30T05:41:51.873Z,97966.84
2024-04-30T05:46:59.767Z,97973.25
2024-04-30T05:52:04.656Z,97977.78
2024-04-30T05:57:09.373Z,97980.47
2024-04-30T06:02:16.688Z,97981.41
2024-04-30T06:07:21.576Z,97990.66
2024-04-30T06:12:26.415Z,98000.53
2024-04-30T06:17:33.889Z,97995.97
2024-04-30T06:22:38.720Z,97996.50
2024-04-30T06:27:43.487Z,97993.91
2024-04-30T06:32:50.968Z,97984.03
2024-04-30T06:37:56.335Z,97990.34
2024-04-30T06:43:01.065Z,97985.59
2024-04-30T06:48:11.048Z,97987.78
2024-04-30T06:53:15.955Z,97983.94
2024-04-30T06:58:20.696Z,97978.56
2024-04-30T07:03:28.010Z,97986.03
2024-04-30T07:08:32.764Z,97979.84
2024-04-30T07:13:37.512Z,97983.22
2024-04-30T07:18:47.017Z,97987.78
2024-04-30T07:23:51.739Z,97995.09
2024-04-30T07:28:56.526Z,97993.53
2024-04-30T07:34:04.520Z,97997.59
2024-04-30T07:39:09.350Z,98007.88
2024-04-30T07:44:14.270Z,97996.09
2024-04-30T07:49:21.678Z,98005.25
2024-04-30T07:54:26.468Z,98010.06
2024-04-30T07:59:31.189Z,98002.81
2024-04-30T08:04:38.931Z,98007.97
2024-04-30T08:09:44.697Z,98002.22
2024-04-30T08:14:49.611Z,98008.41
2024-04-30T08:19:57.196Z,98005.22
2024-04-30T08:25:01.904Z,98010.06
2024-04-30T08:30:06.904Z,98001.16
2024-04-30T08:35:14.742Z,98003.94
2024-04-30T08:40:19.585Z,98002.72
2024-04-30T08:45:25.639Z,98001.72
2024-04-30T08:50:35.380Z,98012.44
2024-04-30T08:55:43.088Z,98008.22
2024-04-30T09:00:48.327Z,98005.41
2024-04-30T09:05:57.216Z,98008.09
2024-04-30T09:11:01.999Z,97994.31
2024-04-30T09:16:10.520Z,97990.41
2024-04-30T09:21:26.485Z,97996.75
2024-04-30T09:26:31.199Z,97997.56
2024-04-30T09:31:39.998Z,97981.25
2024-04-30T09:36:47.526Z,97973.72
2024-04-30T09:41:53.382Z,97977.06
2024-04-30T09:46:58.561Z,97972.75
2024-04-30T09:52:07.197Z,97967.25
2024-04-30T09:57:14.302Z,97956.16
2024-04-30T10:02:21.000Z,97957.31
2024-04-30T10:07:29.748Z,97947.34
2024-04-30T10:12:34.474Z,97935.78
2024-04-30T10:17:43.572Z,97939.34
2024-04-30T10:22:51.099Z,97937.06
2024-04-30T10:28:07.920Z,97926.94
2024-04-30T10:33:12.925Z,97915.31
2024-04-30T10:38:20.459Z,97919.16
2024-04-30T10:43:25.734Z,97899.19
2024-04-30T10:48:30.571Z,97908.19
2024-04-30T10:53:38.203Z,97894.47
2024-04-30T10:58:54.280Z,97890.41
2024-04-30T11:04:10.019Z,97873.75
2024-04-30T11:09:18.809Z,97874.25
2024-04-30T11:14:24.713Z,97872.00
2024-04-30T11:19:29.494Z,97855.50
2024-04-30T11:24:37.214Z,97849.81
2024-04-30T11:29:42.103Z,97853.91
2024-04-30T11:34:49.648Z,97846.94
2024-04-30T11:39:57.301Z,97833.53
2024-04-30T11:45:03.558Z,97818.56
2024-04-30T11:50:09.545Z,97812.31
2024-04-30T11:55:17.251Z,97804.91
2024-04-30T12:00:22.774Z,97796.53
2024-04-30T12:05:27.540Z,97784.47
2024-04-30T12:10:36.471Z,97788.41
2024-04-30T12:15:41.208Z,97786.44
2024-04-30T12:20:45.908Z,97776.97
2024-04-30T12:25:53.312Z,97762.75
2024-04-30T12:30:58.061Z,97777.84
2024-04-30T12:36:02.820Z,97761.56
2024-04-30T12:41:10.210Z,97760.75
2024-04-30T12:46:14.903Z,97740.50
2024-04-30T12:51:19.716Z,97730.28
2024-04-30T12:56:27.113Z,97711.66
2024-04-30T13:01:31.945Z,97715.94
2024-04-30T13:06:41.350Z,97707.97
2024-04-30T13:11:48.727Z,97692.13
2024-04-30T13:16:53.428Z,97687.47
2024-04-30T13:21:58.110Z,97684.75
2024-04-30T13:27:05.438Z,97673.56
2024-04-30T13:32:10.410Z,97669.72
2024-04-30T13:37:15.315Z,97664.16
2024-04-30T13:42:22.803Z,97652.56
2024-04-30T13:47:27.773Z,97635.13
2024-04-30T13:52:34.975Z,97639.22
2024-04-30T13:57:44.535Z,97640.38
2024-04-30T14:02:49.465Z,97635.56
2024-04-30T14:07:54.314Z,97629.53
2024-04-30T14:13:02.396Z,97624.50
2024-04-30T14:18:07.998Z,97622.72
2024-04-30T14:23:12.903Z,97632.06
2024-04-30T14:28:24.298Z,97617.41
2024-04-30T14:33:29.104Z,97599.28
2024-04-30T14:38:34.150Z,97596.25
2024-04-30T14:43:41.736Z,97612.88
2024-04-30T14:48:46.526Z,97605.06
2024-04-30T14:53:51.287Z,97583.38
2024-04-30T14:58:58.675Z,97579.84
2024-04-30T15:04:03.495Z,97580.56
2024-04-30T15:09:11.440Z,97571.72
2024-04-30T15:14:18.806Z,97575.00
2024-04-30T15:19:23.596Z,97567.72
2024-04-30T15:24:28.492Z,97577.25
2024-04-30T15:29:35.988Z,97556.81
2024-04-30T15:34:42.222Z,97552.09
2024-04-30T15:39:47.837Z,97551.31
2024-04-30T15:44:55.218Z,97542.00
2024-04-30T15:49:59.901Z,97527.66
2024-04-30T15:55:04.703Z,97527.63
2024-04-30T16:00:13.306Z,97530.84
2024-04-30T16:05:18.028Z,97523.28
2024-04-30T16:10:22.899Z,97523.03
2024-04-30T16:15:31.147Z,97512.69
2024-04-30T16:20:37.762Z,97514.97
2024-04-30T16:25:44.905Z,97515.47
2024-04-30T16:30:52.692Z,97500.34
2024-04-30T16:35:57.482Z,97493.00
2024-04-30T16:41:02.208Z,97496.03
2024-04-30T16:46:09.611Z,97498.03
2024-04-30T16:51:16.252Z,97499.00
2024-04-30T16:56:21.108Z,97511.13
2024-04-30T17:01:28.564Z,97503.75
2024-04-30T17:06:33.823Z,97503.25
2024-04-30T17:11:38.664Z,97505.22
2024-04-30T17:16:46.542Z,97507.66
2024-04-30T17:21:51.703Z,97506.53
2024-04-30T17:26:57.561Z,97507.16
2024-04-30T17:32:05.119Z,97507.78
2024-04-30T17:37:10.215Z,97512.34
2024-04-30T17:42:15.069Z,97513.72
2024-04-30T17:47:22.738Z,97513.63
2024-04-30T17:52:31.164Z,97512.03
2024-04-30T17:57:37.788Z,97521.56
2024-04-30T18:02:45.153Z,97520.31
2024-04-30T18:07:49.851Z,97521.28
2024-04-30T18:12:54.597Z,97516.94
2024-04-30T18:18:02.117Z,97522.59
2024-04-30T18:23:07.207Z,97532.34
2024-04-30T18:28:11.921Z,97534.22
2024-04-30T18:33:19.485Z,97541.38
2024-04-30T18:38:24.331Z,97540.16
2024-04-30T18:43:29.041Z,97550.69
2024-04-30T18:48:36.570Z,97559.44
2024-04-30T18:53:42.145Z,97558.63
2024-04-30T18:58:47.714Z,97574.50
2024-04-30T19:03:55.317Z,97574.25
2024-04-30T19:09:00.141Z,97568.44
2024-04-30T19:14:04.816Z,97578.13
2024-04-30T19:19:18.135Z,97586.53
2024-04-30T19:24:24.613Z,97574.84
2024-04-30T19:29:30.309Z,97578.59
2024-04-30T19:34:37.921Z,97580.06
2024-04-30T19:39:42.842Z,97585.72
2024-04-30T19:44:47.595Z,97584.56
2024-04-30T19:49:55.073Z,97581.47
2024-04-30T19:55:00.085Z,97578.84
2024-04-30T20:00:05.999Z,97570.09
2024-04-30T20:05:13.803Z,97565.16
2024-04-30T20:10:18.805Z,97567.66
2024-04-30T20:15:23.603Z,97576.63
2024-04-30T20:20:30.931Z,97564.13
2024-04-30T20:25:35.684Z,97560.06
2024-04-30T20:30:40.501Z,97555.41
2024-04-30T20:35:47.924Z,97545.81
2024-04-30T20:40:52.852Z,97536.00
2024-04-30T20:45:57.917Z,97543.34
2024-04-30T20:51:06.437Z,97537.66
2024-04-30T20:56:11.591Z,97535.47
2024-04-30T21:01:17.658Z,97537.28
2024-04-30T21:06:25.159Z,97531.28
2024-04-30T21:11:30.213Z,97527.28
2024-04-30T21:16:39.453Z,97525.28
2024-04-30T21:21:46.958Z,97528.41
2024-04-30T21:26:51.807Z,97527.81
2024-04-30T21:31:56.707Z,97532.63
2024-04-30T21:37:04.286Z,97532.44
2024-04-30T21:42:09.121Z,97527.25
2024-04-30T21:47:15.563Z,97519.28
2024-04-30T21:52:23.032Z,97523.91
2024-04-30T21:57:27.876Z,97520.22
2024-04-30T22:02:32.619Z,97514.66
2024-04-30T22:07:40.095Z,97517.25
2024-04-30T22:12:44.845Z,97519.09
2024-04-30T22:17:49.890Z,97512.63
2024-04-30T22:22:57.357Z,97512.97
2024-04-30T22:28:02.163Z,97518.31
2024-04-30T22:33:07.221Z,97524.25
2024-04-30T22:38:14.599Z,97531.38
2024-04-30T22:43:19.349Z,97524.34
2024-04-30T22:48:24.287Z,97516.25
2024-04-30T22:53:40.722Z,97515.34
2024-04-30T22:58:52.342Z,97507.81
2024-04-30T23:03:57.204Z,97504.84
2024-04-30T23:09:04.831Z,97503.91
2024-04-30T23:14:09.605Z,97492.53
2024-04-30T23:19:14.378Z,97486.47
2024-04-30T23:24:21.905Z,97488.88
2024-04-30T23:29:27.944Z,97480.06
2024-04-30T23:34:32.991Z,97473.09
2024-04-30T23:39:40.517Z,97469.13
2024-04-30T23:44:45.334Z,97460.94
2024-04-30T23:49:50.071Z,97459.88
2024-04-30T23:54:57.570Z,97462.00
